createdAt,value
2023-03-23T15:57:53.065Z,16.63
2023-03-23T16:00:22.879Z,16.61
2023-03-23T16:02:57.948Z,16.52
2023-03-23T16:05:24.912Z,16.58
2023-03-23T16:07:51.602Z,16.57
2023-03-23T16:10:21.639Z,16.56
2023-03-23T16:12:48.317Z,16.55
2023-03-23T16:15:16.183Z,16.52
2023-03-23T16:17:43.276Z,16.48
2023-03-23T16:20:18.880Z,16.39
2023-03-23T16:22:46.327Z,16.32
2023-03-23T16:25:13.812Z,16.27
2023-03-23T16:27:42.014Z,16.21
2023-03-23T16:30:17.841Z,16.17
2023-03-23T16:32:44.916Z,16.14
2023-03-23T16:35:11.550Z,16.12
2023-03-23T16:37:38.150Z,16.13
2023-03-23T16:40:06.022Z,16.09
2023-03-23T16:42:32.974Z,16.08
2023-03-23T16:44:59.486Z,16.02
2023-03-23T16:47:26.141Z,15.96
2023-03-23T16:49:52.923Z,15.99
2023-03-23T16:52:19.969Z,15.96
2023-03-23T16:54:47.124Z,15.87
2023-03-23T16:57:13.586Z,15.85
2023-03-23T16:59:40.179Z,15.79
2023-03-23T17:02:07.463Z,15.75
2023-03-23T17:04:34.862Z,15.73
2023-03-23T17:07:01.397Z,15.67
2023-03-23T17:09:28.515Z,15.63
2023-03-23T17:11:55.441Z,15.59
2023-03-23T17:14:21.910Z,15.58
2023-03-23T17:16:48.433Z,15.53
2023-03-23T17:19:14.871Z,15.49
2023-03-23T17:21:41.616Z,15.44
2023-03-23T17:24:08.499Z,15.44
2023-03-23T17:26:35.911Z,15.42
2023-03-23T17:29:04.005Z,15.40
2023-03-23T17:31:30.616Z,15.40
2023-03-23T17:33:57.029Z,15.34
2023-03-23T17:36:23.641Z,15.29
2023-03-23T17:38:50.842Z,15.20
2023-03-23T17:41:17.224Z,15.19
2023-03-23T17:43:44.060Z,15.17
2023-03-23T17:46:10.919Z,15.13
2023-03-23T17:48:37.478Z,15.12
2023-03-23T17:51:05.002Z,15.12
2023-03-23T17:53:32.633Z,15.09
2023-03-23T17:55:59.380Z,15.02
2023-03-23T17:58:26.055Z,15.06
2023-03-23T18:00:55.270Z,15.13
2023-03-23T18:03:23.266Z,15.04
2023-03-23T18:05:50.130Z,15.02
2023-03-23T18:08:18.252Z,14.96
2023-03-23T18:10:44.975Z,14.87
2023-03-23T18:13:11.860Z,14.89
2023-03-23T18:15:38.495Z,14.80
2023-03-23T18:18:05.732Z,14.74
2023-03-23T18:20:33.137Z,14.69
2023-03-23T18:22:59.635Z,14.69
2023-03-23T18:25:28.991Z,14.72
2023-03-23T18:27:55.473Z,14.78
2023-03-23T18:30:22.571Z,14.86
2023-03-23T18:32:49.654Z,14.84
2023-03-23T18:35:16.499Z,14.83
2023-03-23T18:37:43.141Z,14.83
2023-03-23T18:40:10.976Z,14.75
2023-03-23T18:42:39.893Z,14.69
2023-03-23T18:45:07.079Z,14.63
2023-03-23T18:47:36.408Z,14.59
2023-03-23T18:50:03.737Z,14.54
2023-03-23T18:52:30.248Z,14.55
2023-03-23T18:54:58.320Z,14.47
2023-03-23T18:57:25.502Z,14.48
2023-03-23T18:59:52.400Z,14.44
2023-03-23T19:02:19.838Z,14.53
2023-03-23T19:04:47.727Z,14.47
2023-03-23T19:07:16.096Z,14.47
2023-03-23T19:09:43.003Z,14.48
2023-03-23T19:12:09.940Z,14.65
2023-03-23T19:14:37.355Z,14.84
2023-03-23T19:17:04.249Z,14.78
2023-03-23T19:19:30.883Z,14.86
2023-03-23T19:21:57.326Z,14.82
2023-03-23T19:24:23.873Z,14.80
2023-03-23T19:26:50.459Z,14.79
2023-03-23T19:29:26.710Z,14.82
2023-03-23T19:31:55.019Z,14.81
2023-03-23T19:34:21.558Z,14.83
2023-03-23T19:36:53.778Z,14.91
2023-03-23T19:39:24.171Z,14.93
2023-03-23T19:41:50.934Z,14.89
2023-03-23T19:44:17.976Z,14.82
2023-03-23T19:46:45.405Z,14.78
2023-03-23T19:49:12.032Z,14.78
2023-03-23T19:51:39.705Z,14.86
2023-03-23T19:54:06.356Z,14.85
2023-03-23T19:56:33.907Z,14.77
2023-03-23T19:59:01.350Z,14.82
2023-03-23T20:01:27.894Z,14.86
2023-03-23T20:03:57.273Z,14.82
2023-03-23T20:06:28.715Z,14.81
2023-03-23T20:08:56.319Z,14.84
2023-03-23T20:11:24.506Z,14.77
2023-03-23T20:13:51.113Z,14.72
2023-03-23T20:16:18.632Z,14.66
2023-03-23T20:18:46.137Z,14.63
2023-03-23T20:21:19.666Z,14.64
2023-03-23T20:23:47.092Z,14.66
2023-03-23T20:26:18.489Z,14.72
2023-03-23T20:28:48.084Z,14.73
2023-03-23T20:31:23.126Z,14.67
2023-03-23T20:34:00.744Z,14.60
2023-03-23T20:36:40.606Z,14.58
2023-03-23T20:39:10.931Z,14.55
2023-03-23T20:41:38.208Z,14.53
2023-03-23T20:44:06.604Z,14.48
2023-03-23T20:46:33.919Z,14.41
2023-03-23T20:49:00.771Z,14.35
2023-03-23T20:51:27.277Z,14.30
2023-03-23T20:53:53.754Z,14.23
2023-03-23T20:56:20.290Z,14.18
2023-03-23T20:58:47.409Z,14.10
2023-03-23T21:01:15.729Z,14.04
2023-03-23T21:03:42.856Z,13.96
2023-03-23T21:06:10.343Z,13.96
2023-03-23T21:08:39.964Z,13.93
2023-03-23T21:11:09.294Z,13.92
2023-03-23T21:13:37.257Z,13.79
2023-03-23T21:16:04.897Z,13.73
2023-03-23T21:18:31.900Z,13.67
2023-03-23T21:20:58.791Z,13.61
2023-03-23T21:23:25.701Z,13.54
2023-03-23T21:25:53.356Z,13.45
2023-03-23T21:28:19.825Z,13.38
2023-03-23T21:30:46.728Z,13.33
2023-03-23T21:33:13.635Z,13.27
2023-03-23T21:35:41.145Z,13.26
2023-03-23T21:38:09.125Z,13.26
2023-03-23T21:40:36.116Z,13.21
2023-03-23T21:43:02.579Z,13.09
2023-03-23T21:45:28.985Z,13.09
2023-03-23T21:47:55.743Z,13.06
2023-03-23T21:50:22.611Z,12.98
2023-03-23T21:52:49.100Z,13.00
2023-03-23T21:55:15.935Z,12.97
2023-03-23T21:57:42.709Z,12.90
2023-03-23T22:00:11.068Z,12.88
2023-03-23T22:02:37.830Z,12.82
2023-03-23T22:05:04.425Z,12.79
2023-03-23T22:07:31.558Z,12.75
2023-03-23T22:09:57.984Z,12.74
2023-03-23T22:12:24.958Z,12.71
2023-03-23T22:14:51.412Z,12.58
2023-03-23T22:17:18.125Z,12.54
2023-03-23T22:19:44.492Z,12.52
2023-03-23T22:22:10.915Z,12.44
2023-03-23T22:24:37.424Z,12.40
2023-03-23T22:27:04.268Z,12.39
2023-03-23T22:29:30.699Z,12.34
2023-03-23T22:31:57.151Z,12.31
2023-03-23T22:34:23.493Z,12.29
2023-03-23T22:36:51.378Z,12.24
2023-03-23T22:39:17.964Z,12.22
2023-03-23T22:41:44.639Z,12.17
2023-03-23T22:44:15.276Z,12.08
2023-03-23T22:46:42.673Z,12.06
2023-03-23T22:49:09.579Z,12.07
2023-03-23T22:51:35.982Z,12.07
2023-03-23T22:54:03.825Z,12.08
2023-03-23T22:56:30.385Z,12.08
2023-03-23T22:58:56.861Z,12.09
2023-03-23T23:01:23.730Z,12.09
2023-03-23T23:03:50.578Z,12.00
2023-03-23T23:06:19.686Z,11.96
2023-03-23T23:08:47.370Z,11.98
2023-03-23T23:11:17.306Z,12.03
2023-03-23T23:13:43.894Z,12.04
2023-03-23T23:16:11.965Z,11.96
2023-03-23T23:18:39.544Z,11.97
2023-03-23T23:21:10.361Z,11.97
2023-03-23T23:23:37.059Z,11.95
2023-03-23T23:26:04.913Z,11.98
2023-03-23T23:28:31.394Z,12.01
2023-03-23T23:30:58.239Z,12.02
2023-03-23T23:33:24.688Z,11.96
2023-03-23T23:35:51.342Z,11.94
2023-03-23T23:38:18.080Z,11.93
2023-03-23T23:40:46.195Z,11.95
2023-03-23T23:43:14.911Z,11.97
2023-03-23T23:45:41.486Z,12.11
2023-03-23T23:48:08.824Z,12.02
2023-03-23T23:50:35.956Z,12.03
2023-03-23T23:53:02.457Z,11.89
2023-03-23T23:55:29.056Z,11.90
2023-03-23T23:57:55.913Z,11.94
